Time;durP1;ratioP1;P1;durP2;ratioP2;P2;SDS_P1;SDS_P2;PMS_P1;PMS_P2;Temp;Humidity;BMP_temperature;BMP_pressure;BME280_temperature;BME280_humidity;BME280_pressure;Samples;Min_cycle;Max_cycle;Signal;HPM_P1;HPM_P2
2023/03/18 00:01:03;;;;;;;4.88;2.10;;;;;;;9.29;65.60;97926.69;4158369;28;20065;-73
2023/03/18 00:03:03;;;;;;;2.78;1.98;;;;;;;9.26;65.90;97921.13;4157332;28;20051;-74
2023/03/18 00:05:06;;;;;;;4.00;1.88;;;;;;;9.29;65.87;97925.91;4158623;28;20706;-74
2023/03/18 00:07:07;;;;;;;4.07;1.80;;;;;;;9.29;66.35;97928.66;4158770;28;20272;-74
2023/03/18 00:09:07;;;;;;;3.20;1.77;;;;;;;9.27;67.46;97942.06;4157954;28;20651;-74
2023/03/18 00:11:10;;;;;;;3.08;1.95;;;;;;;9.27;66.63;97937.31;4157704;28;20120;-74
2023/03/18 00:13:10;;;;;;;;;;;;;;;9.27;66.85;97937.31;4158028;28;20053;-73
2023/03/18 00:15:13;;;;;;;2.75;1.95;;;;;;;9.26;66.82;97934.91;4157938;28;20044;-74
2023/03/18 00:17:14;;;;;;;3.53;2.00;;;;;;;9.20;67.86;97931.75;4157987;28;20120;-74
2023/03/18 00:19:14;;;;;;;4.55;2.10;;;;;;;9.16;67.91;97930.09;4158206;28;20467;-73
2023/03/18 00:21:15;;;;;;;2.42;1.80;;;;;;;9.10;67.82;97935.22;4158276;28;20092;-73
2023/03/18 00:23:16;;;;;;;3.63;2.15;;;;;;;9.07;68.13;97935.94;4157321;28;20089;-73
2023/03/18 00:25:17;;;;;;;4.03;2.20;;;;;;;9.08;68.13;97934.78;4157024;28;20107;-74
2023/03/18 00:27:17;;;;;;;3.88;2.15;;;;;;;9.15;67.01;97945.88;4158004;28;20045;-74
2023/03/18 00:29:18;;;;;;;3.20;2.10;;;;;;;9.19;67.60;97935.69;4158206;28;20421;-74
2023/03/18 00:31:18;;;;;;;2.65;1.73;;;;;;;9.23;66.95;97946.75;4157884;28;20410;-74
2023/03/18 00:33:19;;;;;;;3.58;2.10;;;;;;;9.26;66.94;97943.19;4157016;28;20121;-74
2023/03/18 00:35:20;;;;;;;3.78;1.80;;;;;;;9.29;67.36;97945.22;4158105;28;20049;-74
2023/03/18 00:37:29;;;;;;;3.58;2.05;;;;;;;9.26;67.52;97952.28;4157625;28;20072;-74
2023/03/18 00:39:31;;;;;;;2.45;1.90;;;;;;;9.22;68.31;97954.22;4156953;28;20042;-74
2023/03/18 00:41:35;;;;;;;3.33;2.45;;;;;;;9.20;67.48;97962.09;4157600;28;20045;-74
2023/03/18 00:43:51;;;;;;;5.95;2.40;;;;;;;9.22;67.62;97961.72;4156756;28;20059;-73
2023/03/18 00:45:51;;;;;;;3.28;2.00;;;;;;;9.21;67.72;97954.63;4157856;28;20044;-73
2023/03/18 00:47:51;;;;;;;3.47;2.10;;;;;;;9.18;67.98;97958.13;4157808;28;20490;-73
2023/03/18 00:49:52;;;;;;;3.75;2.13;;;;;;;9.18;68.16;97969.94;4157425;28;20045;-74
2023/03/18 00:51:53;;;;;;;3.08;1.90;;;;;;;9.14;68.40;97963.63;4157981;28;20128;-73
2023/03/18 00:53:55;;;;;;;3.55;1.90;;;;;;;9.15;68.00;97967.97;4157474;28;20068;-73
2023/03/18 00:55:56;;;;;;;2.55;1.85;;;;;;;9.14;68.54;97968.34;4157154;28;20034;-74
2023/03/18 00:57:56;;;;;;;2.83;1.85;;;;;;;9.10;68.62;97970.25;4157321;28;20064;-73
2023/03/18 00:59:58;;;;;;;4.00;2.00;;;;;;;9.08;67.87;97976.16;4157880;28;20045;-73
2023/03/18 01:01:58;;;;;;;3.58;2.30;;;;;;;9.08;68.14;97972.63;4157255;28;20045;-74
2023/03/18 01:04:00;;;;;;;3.95;2.45;;;;;;;9.09;68.29;97971.44;4158217;28;20405;-74
2023/03/18 01:06:01;;;;;;;4.07;2.27;;;;;;;9.07;68.31;97973.78;4142889;28;20109;-73
2023/03/18 01:08:01;;;;;;;2.88;2.10;;;;;;;9.04;68.22;97971.81;4155830;28;20053;-74
2023/03/18 01:10:02;;;;;;;4.18;2.63;;;;;;;9.02;69.81;97963.91;4158032;28;20030;-74
2023/03/18 01:12:03;;;;;;;3.60;2.33;;;;;;;9.01;69.28;97965.06;4160590;28;20366;-74
2023/03/18 01:14:03;;;;;;;3.75;2.60;;;;;;;9.01;69.15;97965.06;4160676;28;20464;-73
2023/03/18 01:16:05;;;;;;;4.88;2.42;;;;;;;9.05;68.93;97965.91;4147424;28;20454;-73
2023/03/18 01:18:05;;;;;;;3.27;1.90;;;;;;;9.06;69.23;97963.94;4160523;28;20378;-74
2023/03/18 01:20:06;;;;;;;3.45;2.05;;;;;;;9.06;68.34;97964.72;4161084;28;20701;-73
2023/03/18 01:22:07;;;;;;;4.13;2.30;;;;;;;9.11;68.75;97963.59;4160171;28;20031;-74
2023/03/18 01:24:07;;;;;;;3.70;2.00;;;;;;;9.15;69.19;97964.41;4159478;28;20539;-73
2023/03/18 01:26:09;;;;;;;2.47;1.83;;;;;;;9.24;68.14;97973.16;4160910;28;20036;-73
2023/03/18 01:28:11;;;;;;;3.40;2.53;;;;;;;9.30;67.27;97966.13;4160640;28;20593;-73
2023/03/18 01:30:12;;;;;;;3.75;2.30;;;;;;;9.39;67.34;97966.59;4160252;28;20036;-73
2023/03/18 01:32:12;;;;;;;6.30;2.38;;;;;;;9.38;67.85;97967.75;4160638;28;20033;-73
2023/03/18 01:34:13;;;;;;;6.70;2.38;;;;;;;9.35;68.48;97971.31;4159713;28;20056;-74
2023/03/18 01:36:14;;;;;;;3.63;2.38;;;;;;;9.39;67.99;97972.09;4160713;28;20057;-74
2023/03/18 01:38:15;;;;;;;5.35;2.42;;;;;;;9.35;69.19;97979.59;4159927;28;20068;-74
2023/03/18 01:40:15;;;;;;;3.22;2.10;;;;;;;9.29;68.97;97975.59;4160264;28;20037;-73
2023/03/18 01:42:20;;;;;;;2.72;2.20;;;;;;;9.25;68.28;97978.28;4160684;28;20574;-73
2023/03/18 01:44:23;;;;;;;4.38;2.13;;;;;;;9.23;68.24;97977.88;4159147;28;20120;-74
2023/03/18 01:46:38;;;;;;;3.38;2.13;;;;;;;9.17;68.21;97973.09;4160219;28;20112;-74
2023/03/18 01:48:39;;;;;;;2.72;1.90;;;;;;;9.15;68.94;97981.75;4159997;28;20128;-74
2023/03/18 01:50:39;;;;;;;2.65;1.80;;;;;;;9.11;68.86;97980.94;4160465;28;20065;-73
2023/03/18 01:52:41;;;;;;;2.90;1.80;;;;;;;9.06;69.32;97974.97;4159233;28;20045;-74
2023/03/18 01:54:52;;;;;;;2.55;2.20;;;;;;;9.07;69.66;97976.56;4160497;28;20374;-74
2023/03/18 01:56:54;;;;;;;3.90;2.42;;;;;;;9.06;70.56;97978.53;4160343;28;20046;-74
2023/03/18 01:58:56;;;;;;;3.15;2.40;;;;;;;8.98;71.63;97974.91;4159638;28;20045;-74
2023/03/18 02:01:01;;;;;;;3.28;2.35;;;;;;;8.91;72.02;97972.06;4160682;28;20060;-73
2023/03/18 02:03:03;;;;;;;3.85;2.33;;;;;;;8.86;72.60;97964.16;4159556;28;20474;-73
2023/03/18 02:05:07;;;;;;;4.32;2.53;;;;;;;8.79;72.94;97966.03;4159984;28;20053;-73
2023/03/18 02:07:14;;;;;;;4.18;2.42;;;;;;;8.71;74.15;97967.94;4159577;28;20549;-73
2023/03/18 02:09:16;;;;;;;4.20;2.30;;;;;;;8.61;74.73;97963.91;4160056;28;20283;-73
2023/03/18 02:11:16;;;;;;;4.50;2.30;;;;;;;8.54;75.75;97963.81;4159959;28;20042;-73
2023/03/18 02:13:17;;;;;;;5.05;2.72;;;;;;;8.47;76.36;97966.47;4159665;28;20098;-73
2023/03/18 02:15:21;;;;;;;2.85;2.50;;;;;;;8.40;77.37;97963.63;4159688;28;20044;-73
2023/03/18 02:17:25;;;;;;;3.35;2.10;;;;;;;8.35;77.63;97972.22;4159592;28;20569;-73
2023/03/18 02:19:35;;;;;;;4.38;2.20;;;;;;;8.31;77.63;97982.41;4160100;28;20060;-73
2023/03/18 02:21:36;;;;;;;3.83;2.45;;;;;;;8.26;77.60;97971.69;4158549;28;20119;-73
2023/03/18 02:24:04;;;;;;;3.63;2.65;;;;;;;8.20;78.24;97976.78;4159093;28;20037;-73
2023/03/18 02:26:16;;;;;;;3.25;2.20;;;;;;;8.17;78.27;97977.50;4159638;28;20343;-73
2023/03/18 02:28:23;;;;;;;3.20;2.50;;;;;;;8.15;78.40;97979.84;4159487;28;20071;-73
2023/03/18 02:30:43;;;;;;;2.85;2.38;;;;;;;8.17;78.10;97974.75;4159789;28;20369;-73
2023/03/18 02:32:47;;;;;;;5.07;2.50;;;;;;;8.17;78.66;97977.50;4158983;28;20034;-73
2023/03/18 02:34:47;;;;;;;3.58;2.15;;;;;;;8.16;78.47;97979.47;4159663;28;20049;-73
2023/03/18 02:36:48;;;;;;;4.07;2.25;;;;;;;8.17;79.52;97986.56;4159501;28;20050;-73
2023/03/18 02:38:48;;;;;;;3.13;2.50;;;;;;;8.11;79.70;97985.31;4159722;28;20115;-73
2023/03/18 02:40:49;;;;;;;3.67;2.50;;;;;;;8.08;80.84;97982.50;4159268;28;20080;-73
2023/03/18 02:42:50;;;;;;;3.95;2.33;;;;;;;8.11;80.62;97987.28;4159313;28;20052;-73
2023/03/18 02:44:51;;;;;;;2.90;2.22;;;;;;;8.16;80.89;97992.44;4159255;28;20049;-73
2023/03/18 02:47:02;;;;;;;3.60;2.03;;;;;;;8.22;80.05;97990.97;4159165;28;20039;-73
2023/03/18 02:49:06;;;;;;;8.32;2.70;;;;;;;8.28;79.71;97997.75;4159229;28;20140;-73
2023/03/18 02:51:07;;;;;;;3.45;2.15;;;;;;;8.30;79.98;98006.41;4159257;28;20402;-73
2023/03/18 02:53:11;;;;;;;3.13;2.30;;;;;;;8.30;80.22;98009.19;4158619;28;20500;-73
2023/03/18 02:55:11;;;;;;;3.35;1.80;;;;;;;8.34;80.21;98006.44;4159730;28;20050;-73
2023/03/18 02:57:11;;;;;;;3.17;1.80;;;;;;;8.38;79.79;98013.63;4159297;28;20037;-73
2023/03/18 02:59:12;;;;;;;4.68;2.03;;;;;;;8.44;79.38;98003.88;4159089;28;20052;-73
2023/03/18 03:01:13;;;;;;;3.33;1.83;;;;;;;8.66;77.57;98006.88;4159476;28;20055;-73
2023/03/18 03:03:13;;;;;;;3.45;2.30;;;;;;;8.75;76.74;98007.38;4158418;28;20084;-73
2023/03/18 03:05:14;;;;;;;3.45;2.30;;;;;;;8.81;76.55;98011.38;4158606;28;20051;-73
2023/03/18 03:07:14;;;;;;;3.72;2.38;;;;;;;8.85;76.93;98016.91;4159030;28;20048;-73
2023/03/18 03:09:15;;;;;;;3.38;2.00;;;;;;;8.83;77.36;98011.78;4159645;28;20072;-73
2023/03/18 03:11:16;;;;;;;2.60;1.92;;;;;;;8.81;77.24;98014.13;4159007;28;20064;-73
2023/03/18 03:13:18;;;;;;;2.70;1.83;;;;;;;8.78;77.12;98017.66;4158487;28;20041;-73
2023/03/18 03:15:19;;;;;;;3.42;2.05;;;;;;;8.78;77.37;98031.44;4159084;28;20050;-73
2023/03/18 03:17:19;;;;;;;3.58;1.80;;;;;;;8.75;77.01;98021.16;4159249;28;20037;-73
2023/03/18 03:19:20;;;;;;;4.28;2.08;;;;;;;8.71;77.70;98036.88;4158976;28;20702;-73
2023/03/18 03:21:20;;;;;;;5.38;2.55;;;;;;;8.65;77.79;98043.91;4158602;28;20069;-73
2023/03/18 03:23:20;;;;;;;3.20;1.92;;;;;;;8.57;78.54;98039.47;4158619;28;20068;-73
2023/03/18 03:25:21;;;;;;;3.17;2.10;;;;;;;8.53;78.61;98041.41;4158780;28;20041;-73
2023/03/18 03:27:21;;;;;;;4.43;2.05;;;;;;;8.47;79.42;98049.19;4159255;28;20544;-73
2023/03/18 03:29:22;;;;;;;4.45;2.28;;;;;;;8.42;79.17;98052.28;4158976;28;20099;-73
2023/03/18 03:31:23;;;;;;;4.03;2.10;;;;;;;8.37;79.09;98055.38;4158669;28;20087;-73
2023/03/18 03:33:25;;;;;;;3.50;1.90;;;;;;;8.31;79.98;98048.56;4157679;28;20317;-73
2023/03/18 03:35:26;;;;;;;4.17;2.20;;;;;;;8.24;79.96;98048.44;4157942;28;20042;-73
2023/03/18 03:37:26;;;;;;;3.47;2.10;;;;;;;8.17;80.05;98051.91;4158667;28;20126;-73
2023/03/18 03:39:27;;;;;;;3.83;2.33;;;;;;;8.11;80.68;98045.94;4158732;28;20160;-73
2023/03/18 03:41:27;;;;;;;5.55;3.00;;;;;;;8.07;80.51;98042.31;4158663;28;20042;-73
2023/03/18 03:43:28;;;;;;;3.72;2.45;;;;;;;8.05;80.90;98047.41;4158314;28;20057;-73
2023/03/18 03:45:29;;;;;;;3.95;2.80;;;;;;;8.00;81.47;98046.94;4158674;28;20049;-73
2023/03/18 03:47:29;;;;;;;4.25;2.40;;;;;;;7.94;81.54;98035.44;4158433;28;20029;-73
2023/03/18 03:49:30;;;;;;;5.35;3.60;;;;;;;7.94;81.95;98053.91;4158431;28;20493;-73
2023/03/18 03:51:30;;;;;;;5.40;3.00;;;;;;;7.88;81.92;98046.00;4158428;28;20096;-73
2023/03/18 03:53:32;;;;;;;6.00;3.15;;;;;;;7.85;81.96;98035.69;4157413;28;20053;-73
2023/03/18 03:55:32;;;;;;;5.05;3.15;;;;;;;7.87;83.48;98044.41;4158551;28;20441;-73
2023/03/18 03:57:34;;;;;;;4.30;3.10;;;;;;;7.84;83.24;98041.56;4158478;28;20049;-73
2023/03/18 03:59:34;;;;;;;4.85;2.67;;;;;;;7.84;83.25;98036.84;4158138;28;20092;-73
2023/03/18 04:01:35;;;;;;;3.22;2.53;;;;;;;7.85;83.00;98041.19;4158485;28;20045;-73
2023/03/18 04:03:35;;;;;;;4.53;2.70;;;;;;;7.84;82.97;98045.13;4157271;28;20141;-73
2023/03/18 04:05:36;;;;;;;4.47;2.70;;;;;;;7.86;82.89;98045.56;4158981;28;20339;-73
2023/03/18 04:07:37;;;;;;;3.72;2.67;;;;;;;7.86;83.27;98045.56;4157892;28;20107;-73
2023/03/18 04:09:37;;;;;;;4.82;3.08;;;;;;;7.86;82.86;98040.06;4158091;28;20053;-73
2023/03/18 04:11:38;;;;;;;3.78;2.65;;;;;;;7.84;83.13;98039.63;4158646;28;20056;-73
2023/03/18 04:13:38;;;;;;;4.88;2.60;;;;;;;7.82;82.69;98043.91;4157161;28;20449;-73
2023/03/18 04:15:39;;;;;;;3.92;2.42;;;;;;;7.81;83.47;98037.63;4157753;28;20092;-73
2023/03/18 04:17:40;;;;;;;6.55;2.72;;;;;;;7.80;83.06;98036.03;4158384;28;20049;-73
2023/03/18 04:19:40;;;;;;;3.88;2.20;;;;;;;7.77;83.44;98035.97;4158253;28;20533;-73
2023/03/18 04:21:41;;;;;;;6.15;2.65;;;;;;;7.76;83.08;98046.19;4158169;28;20084;-73
2023/03/18 04:23:41;;;;;;;5.03;2.53;;;;;;;7.77;83.25;98053.28;4157629;28;20481;-73
2023/03/18 04:25:42;;;;;;;4.30;2.63;;;;;;;7.74;84.13;98051.28;4157851;28;20062;-73
2023/03/18 04:27:42;;;;;;;3.83;2.53;;;;;;;7.73;84.72;98046.94;4158419;28;20037;-73
2023/03/18 04:29:43;;;;;;;6.75;3.10;;;;;;;7.70;84.25;98049.63;4158070;28;20037;-73
2023/03/18 04:31:44;;;;;;;5.15;3.17;;;;;;;7.70;84.75;98047.69;4158137;28;20247;-73
2023/03/18 04:33:44;;;;;;;4.60;3.00;;;;;;;7.69;87.35;98046.06;4157037;28;20052;-73
2023/03/18 04:35:44;;;;;;;9.52;4.53;;;;;;;7.62;86.74;98043.22;4144259;28;20104;-73
2023/03/18 04:37:45;;;;;;;5.70;3.55;;;;;;;7.63;86.28;98039.31;4156025;28;20111;-73
2023/03/18 04:39:48;;;;;;;6.55;4.05;;;;;;;7.64;85.93;98045.59;4157983;28;20128;-73
2023/03/18 04:41:48;;;;;;;5.85;3.30;;;;;;;7.65;85.57;98030.66;4157675;28;20124;-73
2023/03/18 04:43:49;;;;;;;7.57;3.47;;;;;;;7.67;85.62;98039.34;4157243;28;20065;-73
2023/03/18 04:45:50;;;;;;;5.70;3.35;;;;;;;7.70;85.48;98038.63;4156762;28;20168;-73
2023/03/18 04:47:51;;;;;;;4.63;2.65;;;;;;;7.79;86.81;98036.41;4157191;28;20053;-73
2023/03/18 04:49:51;;;;;;;3.97;2.70;;;;;;;7.87;87.81;98033.38;4157627;28;20053;-73
2023/03/18 04:51:52;;;;;;;4.07;2.08;;;;;;;8.03;88.36;98044.25;4157675;28;20458;-73
2023/03/18 04:53:52;;;;;;;3.70;2.10;;;;;;;8.18;89.25;98050.72;4157157;28;20053;-73
2023/03/18 04:55:52;;;;;;;4.13;2.20;;;;;;;8.35;89.28;98043.91;4157407;28;20042;-73
2023/03/18 04:57:53;;;;;;;4.63;2.40;;;;;;;8.48;87.33;98042.50;4157777;28;20049;-73
2023/03/18 04:59:53;;;;;;;4.68;2.15;;;;;;;8.63;87.28;98054.50;4157756;28;20069;-73
2023/03/18 05:01:54;;;;;;;3.92;1.90;;;;;;;8.73;86.84;98051.09;4157117;28;20049;-73
2023/03/18 05:03:54;;;;;;;3.67;2.00;;;;;;;8.78;86.32;98042.50;4156818;28;20052;-73
2023/03/18 05:05:55;;;;;;;5.25;2.03;;;;;;;8.79;86.19;98037.75;4157818;28;20050;-73
2023/03/18 05:07:56;;;;;;;2.40;1.75;;;;;;;8.83;86.10;98031.09;4156614;28;20051;-73
2023/03/18 05:09:57;;;;;;;4.03;1.80;;;;;;;8.87;85.38;98036.69;4157515;28;20081;-73
2023/03/18 05:11:57;;;;;;;3.10;1.60;;;;;;;8.85;84.77;98036.22;4157371;28;20046;-73
2023/03/18 05:13:57;;;;;;;2.50;1.80;;;;;;;8.83;84.58;98033.06;4156717;28;20095;-73
2023/03/18 05:15:58;;;;;;;2.47;1.83;;;;;;;8.86;86.03;98044.16;4157240;28;20069;-73
2023/03/18 05:17:58;;;;;;;3.60;1.80;;;;;;;8.90;86.91;98046.94;4157240;28;20073;-73
2023/03/18 05:19:59;;;;;;;4.10;1.92;;;;;;;8.92;86.76;98047.34;4157374;28;20049;-73
2023/03/18 05:21:59;;;;;;;2.90;1.50;;;;;;;8.95;86.86;98046.63;4157198;28;20033;-73
2023/03/18 05:24:00;;;;;;;2.38;1.65;;;;;;;9.01;87.14;98051.41;4156665;28;20057;-73
2023/03/18 05:26:02;;;;;;;1.58;1.48;;;;;;;9.12;87.55;98043.25;4157273;28;20271;-73
2023/03/18 05:28:03;;;;;;;4.82;2.53;;;;;;;9.18;87.44;98040.91;4157383;28;20041;-73
2023/03/18 05:30:04;;;;;;;3.58;2.47;;;;;;;9.16;85.52;98044.06;4157119;28;20094;-73
2023/03/18 05:32:05;;;;;;;4.68;2.10;;;;;;;9.09;86.38;98043.19;4156856;28;20036;-73
2023/03/18 05:34:07;;;;;;;7.72;4.10;;;;;;;8.99;85.59;98059.25;4157068;28;20481;-73
2023/03/18 05:36:08;;;;;;;8.25;4.32;;;;;;;8.85;86.20;98039.00;4157244;28;20067;-73
2023/03/18 05:38:09;;;;;;;7.95;4.10;;;;;;;8.79;86.54;98048.78;4157113;28;20516;-73
2023/03/18 05:40:10;;;;;;;7.20;4.20;;;;;;;8.67;87.50;98039.59;4157598;28;20025;-73
2023/03/18 05:42:11;;;;;;;4.70;3.40;;;;;;;8.60;87.28;98047.75;4156224;28;20049;-73
2023/03/18 05:44:11;;;;;;;6.53;3.42;;;;;;;8.57;87.72;98051.28;4143079;28;20318;-73
2023/03/18 05:46:12;;;;;;;5.50;3.50;;;;;;;8.50;87.93;98048.44;4156774;28;20026;-73
2023/03/18 05:48:13;;;;;;;6.45;3.35;;;;;;;8.45;88.13;98057.06;4157375;28;20025;-73
2023/03/18 05:50:13;;;;;;;6.00;3.42;;;;;;;8.43;88.54;98056.59;4157409;28;20046;-73
2023/03/18 05:52:16;;;;;;;7.43;3.00;;;;;;;8.47;89.04;98053.91;4156647;28;20428;-73
2023/03/18 05:54:16;;;;;;;4.35;2.78;;;;;;;8.53;89.73;98049.66;4156760;28;20025;-73
2023/03/18 05:56:17;;;;;;;6.07;2.92;;;;;;;8.59;88.76;98048.94;4158406;28;20591;-73
2023/03/18 05:58:18;;;;;;;4.05;2.22;;;;;;;8.66;89.28;98053.75;4160067;28;20044;-73
2023/03/18 06:00:19;;;;;;;8.05;3.83;;;;;;;8.71;89.74;98058.94;4159815;28;20028;-73
2023/03/18 06:02:19;;;;;;;8.82;4.25;;;;;;;8.77;90.17;98062.97;4159896;28;20025;-73
2023/03/18 06:04:20;;;;;;;5.45;3.05;;;;;;;8.79;89.96;98055.09;4159651;28;20025;-73
2023/03/18 06:06:20;;;;;;;5.57;2.92;;;;;;;8.75;90.15;98054.25;4160469;28;20068;-73
2023/03/18 06:08:21;;;;;;;6.40;2.85;;;;;;;8.73;89.79;98062.91;4159878;28;20363;-73
2023/03/18 06:10:24;;;;;;;5.35;3.28;;;;;;;8.66;90.40;98048.25;4160415;28;20049;-73
2023/03/18 06:12:26;;;;;;;5.47;3.30;;;;;;;8.61;89.95;98052.13;4159922;28;20049;-73
2023/03/18 06:14:28;;;;;;;8.48;4.72;;;;;;;8.59;90.74;98056.41;4158815;28;20052;-73
2023/03/18 06:16:28;;;;;;;12.02;6.57;;;;;;;8.54;91.22;98051.25;4160021;28;20034;-73
2023/03/18 06:18:29;;;;;;;9.27;5.00;;;;;;;8.52;91.38;98059.09;4160153;28;20367;-73
2023/03/18 06:20:30;;;;;;;6.40;4.10;;;;;;;8.50;90.84;98056.72;4159847;28;20120;-72
2023/03/18 06:22:31;;;;;;;7.40;4.30;;;;;;;8.48;90.97;98055.50;4159208;28;20395;-73
2023/03/18 06:24:32;;;;;;;7.35;4.00;;;;;;;8.48;91.19;98056.28;4159424;28;20378;-73
2023/03/18 06:26:32;;;;;;;11.60;3.05;;;;;;;8.48;92.90;98058.25;4159667;28;20041;-73
2023/03/18 06:28:34;;;;;;;4.43;3.00;;;;;;;8.51;92.66;98063.00;4159394;28;20045;-73
2023/03/18 06:30:34;;;;;;;8.30;2.92;;;;;;;8.49;89.55;98066.16;4159849;28;20473;-73
2023/03/18 06:32:34;;;;;;;4.43;2.90;;;;;;;8.48;92.39;98066.53;4159313;28;20052;-73
2023/03/18 06:34:35;;;;;;;5.70;2.40;;;;;;;8.44;92.74;98061.78;4159574;28;20033;-73
2023/03/18 06:36:36;;;;;;;7.05;2.58;;;;;;;8.45;93.08;98059.81;4159466;28;20754;-73
2023/03/18 06:38:37;;;;;;;8.65;3.92;;;;;;;8.46;94.13;98066.91;4159295;28;20437;-73
2023/03/18 06:40:37;;;;;;;5.57;2.33;;;;;;;8.47;94.09;98065.75;4159870;28;20041;-73
2023/03/18 06:42:38;;;;;;;5.53;2.63;;;;;;;8.52;93.42;98068.16;4158529;28;20041;-73
2023/03/18 06:44:41;;;;;;;3.42;2.30;;;;;;;8.54;93.24;98067.78;4049908;28;20044;-73
2023/03/18 06:46:42;;;;;;;5.50;2.40;;;;;;;8.53;92.24;98075.28;4159331;28;20045;-73
2023/03/18 06:48:42;;;;;;;3.15;2.50;;;;;;;8.56;92.79;98060.72;4159885;28;20048;-73
2023/03/18 06:50:43;;;;;;;4.13;2.55;;;;;;;8.60;93.25;98077.31;4159392;28;20045;-73
2023/03/18 06:52:43;;;;;;;3.92;2.20;;;;;;;8.64;93.28;98076.19;4158705;28;20040;-73
2023/03/18 06:54:45;;;;;;;3.80;2.47;;;;;;;8.69;91.86;98075.88;4159784;28;20148;-73
2023/03/18 06:56:45;;;;;;;5.70;2.33;;;;;;;8.71;91.99;98083.78;4159140;28;20502;-73
2023/03/18 06:58:45;;;;;;;3.88;2.03;;;;;;;8.73;91.98;98095.22;4158864;28;20049;-73
2023/03/18 07:00:46;;;;;;;3.88;2.22;;;;;;;8.71;91.38;98086.53;4159238;28;20042;-73
2023/03/18 07:02:46;;;;;;;5.40;2.50;;;;;;;8.73;91.85;98089.69;4158710;28;20461;-73
2023/03/18 07:04:47;;;;;;;7.65;2.30;;;;;;;8.75;92.44;98090.13;4158911;28;20056;-73
2023/03/18 07:06:47;;;;;;;2.97;2.00;;;;;;;8.80;92.88;98095.31;4159283;28;20445;-73
2023/03/18 07:08:47;;;;;;;4.32;2.80;;;;;;;8.83;92.46;98088.25;4158946;28;20123;-73
2023/03/18 07:10:51;;;;;;;16.48;8.07;;;;;;;9.04;95.12;98098.75;4159432;28;20076;-73
2023/03/18 07:12:52;;;;;;;21.45;8.98;;;;;;;9.03;96.19;98099.91;4156906;28;20053;-73
2023/03/18 07:14:53;;;;;;;18.75;8.05;;;;;;;9.02;96.75;98099.13;4158539;28;20033;-73
2023/03/18 07:16:54;;;;;;;15.43;6.32;;;;;;;9.01;96.79;98101.06;4159305;28;20049;-73
2023/03/18 07:18:57;;;;;;;11.93;4.45;;;;;;;8.98;97.49;98090.78;4158852;28;20505;-73
2023/03/18 07:20:58;;;;;;;8.88;4.93;;;;;;;9.03;98.05;98103.47;4159601;28;20042;-73
2023/03/18 07:22:59;;;;;;;12.40;6.20;;;;;;;9.01;97.65;98095.53;4160785;28;20094;-73
2023/03/18 07:25:00;;;;;;;11.30;4.45;;;;;;;9.01;96.41;98103.81;4158417;28;20436;-73
2023/03/18 07:27:00;;;;;;;8.85;4.93;;;;;;;9.01;96.17;98098.31;4158737;28;20045;-73
2023/03/18 07:29:00;;;;;;;7.93;4.60;;;;;;;9.03;96.16;98097.16;4158833;28;20572;-73
2023/03/18 07:31:01;;;;;;;8.93;3.97;;;;;;;9.04;95.16;98096.78;4159074;28;20334;-73
2023/03/18 07:33:01;;;;;;;10.02;4.20;;;;;;;9.11;95.27;98094.09;4157941;28;20114;-73
2023/03/18 07:35:03;;;;;;;12.90;4.13;;;;;;;9.14;95.51;98096.09;4158389;28;20132;-73
2023/03/18 07:37:03;;;;;;;12.27;4.72;;;;;;;9.26;96.66;98090.28;4159009;28;20084;-73
2023/03/18 07:39:05;;;;;;;7.47;3.35;;;;;;;9.37;97.07;98095.16;4158473;28;20127;-73
2023/03/18 07:41:06;;;;;;;5.55;3.47;;;;;;;9.42;97.19;98105.84;4158553;28;20037;-73
2023/03/18 07:43:06;;;;;;;7.45;3.53;;;;;;;9.51;96.99;98104.34;4157398;28;20343;-73
2023/03/18 07:45:07;;;;;;;7.40;3.35;;;;;;;9.57;97.10;98105.59;4158793;28;20056;-73
2023/03/18 07:47:08;;;;;;;10.77;3.35;;;;;;;9.65;96.21;98103.69;4158194;28;20069;-73
2023/03/18 07:49:08;;;;;;;6.03;3.65;;;;;;;9.70;96.48;98105.34;4158499;28;20029;-73
2023/03/18 07:51:08;;;;;;;8.07;4.35;;;;;;;9.72;96.84;98095.47;4158660;28;20041;-73
2023/03/18 07:53:09;;;;;;;7.38;3.35;;;;;;;9.78;96.76;98104.22;4157417;28;20808;-73
2023/03/18 07:55:10;;;;;;;7.22;3.72;;;;;;;9.83;96.94;98101.09;4158550;28;20034;-72
2023/03/18 07:57:11;;;;;;;4.78;3.28;;;;;;;9.89;95.86;98110.63;4158287;28;20037;-73
2023/03/18 07:59:12;;;;;;;5.55;2.58;;;;;;;10.00;93.57;98111.50;4158260;28;20493;-72
2023/03/18 08:01:14;;;;;;;4.60;2.60;;;;;;;10.08;92.93;98107.59;4158151;28;20053;-73
2023/03/18 08:03:15;;;;;;;4.20;2.97;;;;;;;10.17;92.48;98109.25;4157701;28;20064;-73
2023/03/18 08:05:17;;;;;;;5.22;3.05;;;;;;;10.21;92.24;98118.38;4158808;28;20384;-73
2023/03/18 08:07:18;;;;;;;6.03;2.83;;;;;;;10.33;91.53;98121.63;4158182;28;20046;-73
2023/03/18 08:09:18;;;;;;;3.78;2.92;;;;;;;10.47;91.58;98122.91;4158261;28;20496;-73
2023/03/18 08:11:19;;;;;;;3.88;2.80;;;;;;;10.53;90.69;98119.41;4158133;28;20501;-73
2023/03/18 08:13:20;;;;;;;4.82;2.78;;;;;;;10.56;90.17;98112.28;4157210;28;20505;-73
2023/03/18 08:15:21;;;;;;;8.52;5.50;;;;;;;10.55;90.57;98125.34;4157750;28;20545;-73
2023/03/18 08:17:22;;;;;;;5.00;3.50;;;;;;;10.58;91.38;98116.25;4158134;28;20389;-73
2023/03/18 08:19:22;;;;;;;5.55;3.10;;;;;;;10.63;90.33;98118.66;4157731;28;20040;-73
2023/03/18 08:21:23;;;;;;;5.03;2.83;;;;;;;10.73;90.31;98127.41;4189324;28;20084;-73
2023/03/18 08:23:24;;;;;;;7.22;4.15;;;;;;;10.79;89.91;98123.88;4157462;28;20052;-73
2023/03/18 08:25:24;;;;;;;6.18;4.90;;;;;;;11.06;89.13;98129.94;4157635;28;20407;-73
2023/03/18 08:27:24;;;;;;;6.38;3.45;;;;;;;11.17;87.80;98124.41;4158276;28;20521;-73
2023/03/18 08:29:25;;;;;;;9.32;5.00;;;;;;;11.29;87.35;98124.06;4157750;28;20542;-73
2023/03/18 08:31:26;;;;;;;4.22;3.15;;;;;;;11.58;86.73;98138.00;4157964;28;20216;-73
2023/03/18 08:33:27;;;;;;;9.70;5.20;;;;;;;11.67;86.85;98138.44;4157385;28;20041;-73
2023/03/18 08:35:27;;;;;;;7.78;3.90;;;;;;;11.66;87.04;98142.34;4157297;28;20431;-73
2023/03/18 08:37:27;;;;;;;6.18;3.88;;;;;;;11.63;87.14;98127.31;4157979;28;20056;-73
2023/03/18 08:39:28;;;;;;;13.07;8.00;;;;;;;11.65;87.57;98133.25;4157605;28;20547;-73
2023/03/18 08:41:28;;;;;;;14.02;8.98;;;;;;;11.67;86.74;98132.88;4157722;28;20044;-73
2023/03/18 08:43:28;;;;;;;8.45;6.00;;;;;;;11.68;86.71;98138.03;4157501;28;20029;-73
2023/03/18 08:45:29;;;;;;;5.97;3.70;;;;;;;11.75;87.04;98140.81;4157587;28;20034;-73
2023/03/18 08:47:30;;;;;;;7.50;2.78;;;;;;;11.79;87.82;98126.94;4157545;28;20146;-73
2023/03/18 08:49:30;;;;;;;3.63;2.42;;;;;;;11.91;87.23;98128.56;4158038;28;20433;-73
2023/03/18 08:51:34;;;;;;;5.43;2.53;;;;;;;12.06;85.68;98130.16;4157959;28;20045;-73
2023/03/18 08:53:34;;;;;;;4.00;1.92;;;;;;;12.23;86.19;98136.88;4156678;28;20085;-73
2023/03/18 08:55:38;;;;;;;2.78;1.65;;;;;;;12.42;84.51;98135.69;4157585;28;20378;-73
2023/03/18 08:57:39;;;;;;;3.53;1.80;;;;;;;12.63;83.82;98132.88;4157552;28;20202;-73
2023/03/18 08:59:39;;;;;;;2.55;1.55;;;;;;;12.73;83.38;98134.03;4157889;28;20033;-73
2023/03/18 09:01:40;;;;;;;2.20;1.40;;;;;;;12.87;83.92;98136.78;4157784;28;20048;-73
2023/03/18 09:03:40;;;;;;;5.60;2.90;;;;;;;13.07;83.38;98139.88;4156694;28;20077;-73
2023/03/18 09:05:41;;;;;;;3.35;2.35;;;;;;;13.20;81.66;98138.25;4095113;28;20053;-73
2023/03/18 09:07:42;;;;;;;4.05;1.92;;;;;;;13.16;81.86;98145.81;4142923;28;20038;-73
2023/03/18 09:09:43;;;;;;;2.83;1.88;;;;;;;13.13;81.13;98133.50;4154849;28;20044;-74
2023/03/18 09:11:45;;;;;;;6.03;2.13;;;;;;;13.18;80.98;98137.84;4158003;28;20045;-73
2023/03/18 09:13:45;;;;;;;4.40;1.90;;;;;;;13.15;80.46;98144.97;4157123;28;20501;-73
2023/03/18 09:15:46;;;;;;;4.28;2.13;;;;;;;13.12;80.08;98147.78;4157191;28;20284;-73
2023/03/18 09:17:47;;;;;;;4.32;1.92;;;;;;;13.03;79.59;98151.00;4157439;28;20041;-73
2023/03/18 09:19:47;;;;;;;2.25;1.52;;;;;;;13.11;79.57;98147.00;4157822;28;20045;-74
2023/03/18 09:21:48;;;;;;;2.55;2.00;;;;;;;13.09;78.76;98143.06;4156615;28;20040;-74
2023/03/18 09:23:49;;;;;;;4.18;1.88;;;;;;;13.03;79.98;98150.22;4155791;28;20135;-74
2023/03/18 09:25:49;;;;;;;4.43;2.22;;;;;;;12.94;79.17;98140.31;4155091;28;20459;-73
2023/03/18 09:27:50;;;;;;;3.20;1.92;;;;;;;12.98;78.99;98150.63;4152872;28;20081;-73
2023/03/18 09:29:51;;;;;;;5.30;2.20;;;;;;;12.94;79.92;98145.09;4152795;28;20046;-73
2023/03/18 09:31:51;;;;;;;4.55;2.40;;;;;;;12.94;80.61;98148.66;4154324;28;20154;-73
2023/03/18 09:33:51;;;;;;;4.40;1.98;;;;;;;12.93;79.97;98151.84;4154708;28;20077;-74
2023/03/18 09:35:52;;;;;;;3.17;2.05;;;;;;;12.96;79.18;98142.69;4155579;28;20355;-74